sensor_id;sensor_type;location;lat;lon;timestamp;P1;durP1;ratioP1;P2;durP2;ratioP2
23814;SDS011;12088;53.078;8.720;2022-08-19T00:01:48;2.70;;;2.47;;
23814;SDS011;12088;53.078;8.720;2022-08-19T00:04:17;4.27;;;2.53;;
23814;SDS011;12088;53.078;8.720;2022-08-19T00:06:45;4.43;;;1.93;;
23814;SDS011;12088;53.078;8.720;2022-08-19T00:09:13;3.63;;;2.20;;
23814;SDS011;12088;53.078;8.720;2022-08-19T00:11:40;4.53;;;2.80;;
23814;SDS011;12088;53.078;8.720;2022-08-19T00:14:06;2.40;;;2.13;;
23814;SDS011;12088;53.078;8.720;2022-08-19T00:16:34;3.50;;;2.47;;
23814;SDS011;12088;53.078;8.720;2022-08-19T00:19:01;4.80;;;2.50;;
23814;SDS011;12088;53.078;8.720;2022-08-19T00:21:27;2.90;;;2.27;;
23814;SDS011;12088;53.078;8.720;2022-08-19T00:23:53;1.80;;;1.50;;
23814;SDS011;12088;53.078;8.720;2022-08-19T00:26:23;6.20;;;2.43;;
23814;SDS011;12088;53.078;8.720;2022-08-19T00:28:49;3.57;;;2.67;;
23814;SDS011;12088;53.078;8.720;2022-08-19T00:31:15;3.10;;;2.65;;
23814;SDS011;12088;53.078;8.720;2022-08-19T00:33:41;5.03;;;2.33;;
23814;SDS011;12088;53.078;8.720;2022-08-19T00:36:07;1.57;;;1.47;;
23814;SDS011;12088;53.078;8.720;2022-08-19T00:38:34;6.23;;;2.60;;
23814;SDS011;12088;53.078;8.720;2022-08-19T00:41:01;3.87;;;2.17;;
23814;SDS011;12088;53.078;8.720;2022-08-19T00:43:27;3.38;;;2.53;;
23814;SDS011;12088;53.078;8.720;2022-08-19T00:45:53;3.50;;;1.80;;
23814;SDS011;12088;53.078;8.720;2022-08-19T00:48:20;4.88;;;2.00;;
23814;SDS011;12088;53.078;8.720;2022-08-19T00:50:47;2.00;;;1.80;;
23814;SDS011;12088;53.078;8.720;2022-08-19T00:53:14;4.75;;;1.85;;
23814;SDS011;12088;53.078;8.720;2022-08-19T00:55:47;2.10;;;1.63;;
23814;SDS011;12088;53.078;8.720;2022-08-19T00:58:16;3.63;;;1.80;;
23814;SDS011;12088;53.078;8.720;2022-08-19T01:00:45;3.00;;;1.57;;
23814;SDS011;12088;53.078;8.720;2022-08-19T01:03:13;3.20;;;2.53;;
23814;SDS011;12088;53.078;8.720;2022-08-19T01:05:45;3.53;;;1.90;;
23814;SDS011;12088;53.078;8.720;2022-08-19T01:08:11;2.30;;;2.07;;
23814;SDS011;12088;53.078;8.720;2022-08-19T01:10:43;4.00;;;2.20;;
23814;SDS011;12088;53.078;8.720;2022-08-19T01:13:15;3.73;;;2.20;;
23814;SDS011;12088;53.078;8.720;2022-08-19T01:15:43;3.00;;;2.30;;
23814;SDS011;12088;53.078;8.720;2022-08-19T01:18:15;1.73;;;1.40;;
23814;SDS011;12088;53.078;8.720;2022-08-19T01:20:43;4.03;;;2.30;;
23814;SDS011;12088;53.078;8.720;2022-08-19T01:23:09;2.60;;;1.87;;
23814;SDS011;12088;53.078;8.720;2022-08-19T01:25:55;1.83;;;1.13;;
23814;SDS011;12088;53.078;8.720;2022-08-19T01:28:22;2.47;;;2.13;;
23814;SDS011;12088;53.078;8.720;2022-08-19T01:30:53;2.90;;;2.57;;
23814;SDS011;12088;53.078;8.720;2022-08-19T01:33:20;3.77;;;1.43;;
23814;SDS011;12088;53.078;8.720;2022-08-19T01:35:46;4.83;;;2.47;;
23814;SDS011;12088;53.078;8.720;2022-08-19T01:38:19;2.07;;;1.57;;
23814;SDS011;12088;53.078;8.720;2022-08-19T01:40:47;3.37;;;2.13;;
23814;SDS011;12088;53.078;8.720;2022-08-19T01:43:13;4.87;;;1.63;;
23814;SDS011;12088;53.078;8.720;2022-08-19T01:45:38;3.30;;;2.08;;
23814;SDS011;12088;53.078;8.720;2022-08-19T01:48:05;5.00;;;2.30;;
23814;SDS011;12088;53.078;8.720;2022-08-19T01:50:34;5.63;;;1.80;;
23814;SDS011;12088;53.078;8.720;2022-08-19T01:53:01;5.80;;;2.43;;
23814;SDS011;12088;53.078;8.720;2022-08-19T01:55:28;4.40;;;2.57;;
23814;SDS011;12088;53.078;8.720;2022-08-19T01:57:55;4.70;;;2.90;;
23814;SDS011;12088;53.078;8.720;2022-08-19T02:00:25;2.07;;;1.77;;
23814;SDS011;12088;53.078;8.720;2022-08-19T02:02:51;4.83;;;3.00;;
23814;SDS011;12088;53.078;8.720;2022-08-19T02:05:17;2.63;;;1.93;;
23814;SDS011;12088;53.078;8.720;2022-08-19T02:07:43;2.67;;;1.70;;
23814;SDS011;12088;53.078;8.720;2022-08-19T02:10:11;2.57;;;2.23;;
23814;SDS011;12088;53.078;8.720;2022-08-19T02:12:39;4.27;;;2.10;;
23814;SDS011;12088;53.078;8.720;2022-08-19T02:15:05;4.33;;;2.63;;
23814;SDS011;12088;53.078;8.720;2022-08-19T02:17:31;1.80;;;1.60;;
23814;SDS011;12088;53.078;8.720;2022-08-19T02:19:56;3.33;;;2.33;;
23814;SDS011;12088;53.078;8.720;2022-08-19T02:22:23;1.65;;;1.27;;
23814;SDS011;12088;53.078;8.720;2022-08-19T02:24:50;4.77;;;2.20;;
23814;SDS011;12088;53.078;8.720;2022-08-19T02:27:16;3.50;;;2.45;;
23814;SDS011;12088;53.078;8.720;2022-08-19T02:29:42;3.10;;;2.60;;
23814;SDS011;12088;53.078;8.720;2022-08-19T02:32:08;1.50;;;1.37;;
23814;SDS011;12088;53.078;8.720;2022-08-19T02:34:33;3.30;;;2.10;;
23814;SDS011;12088;53.078;8.720;2022-08-19T02:36:59;4.73;;;2.33;;
23814;SDS011;12088;53.078;8.720;2022-08-19T02:39:25;2.47;;;2.27;;
23814;SDS011;12088;53.078;8.720;2022-08-19T02:41:51;4.37;;;1.93;;
23814;SDS011;12088;53.078;8.720;2022-08-19T02:44:17;2.37;;;1.67;;
23814;SDS011;12088;53.078;8.720;2022-08-19T02:46:44;2.73;;;1.70;;
23814;SDS011;12088;53.078;8.720;2022-08-19T02:49:10;2.97;;;1.50;;
23814;SDS011;12088;53.078;8.720;2022-08-19T02:51:37;2.97;;;1.90;;
23814;SDS011;12088;53.078;8.720;2022-08-19T02:54:05;2.23;;;2.03;;
23814;SDS011;12088;53.078;8.720;2022-08-19T02:56:34;6.83;;;1.70;;
23814;SDS011;12088;53.078;8.720;2022-08-19T02:59:04;2.30;;;1.87;;
23814;SDS011;12088;53.078;8.720;2022-08-19T03:01:35;2.27;;;1.90;;
23814;SDS011;12088;53.078;8.720;2022-08-19T03:04:04;3.37;;;2.97;;
23814;SDS011;12088;53.078;8.720;2022-08-19T03:06:30;3.17;;;2.63;;
23814;SDS011;12088;53.078;8.720;2022-08-19T03:08:56;2.63;;;1.97;;
23814;SDS011;12088;53.078;8.720;2022-08-19T03:11:23;2.80;;;2.10;;
23814;SDS011;12088;53.078;8.720;2022-08-19T03:13:51;3.47;;;2.53;;
23814;SDS011;12088;53.078;8.720;2022-08-19T03:16:18;3.87;;;2.30;;
23814;SDS011;12088;53.078;8.720;2022-08-19T03:18:44;3.97;;;2.70;;
23814;SDS011;12088;53.078;8.720;2022-08-19T03:21:14;5.83;;;2.13;;
23814;SDS011;12088;53.078;8.720;2022-08-19T03:23:41;3.17;;;2.27;;
23814;SDS011;12088;53.078;8.720;2022-08-19T03:26:07;4.47;;;2.47;;
23814;SDS011;12088;53.078;8.720;2022-08-19T03:28:32;3.03;;;1.93;;
23814;SDS011;12088;53.078;8.720;2022-08-19T03:31:00;5.03;;;2.73;;
23814;SDS011;12088;53.078;8.720;2022-08-19T03:33:29;3.43;;;1.37;;
23814;SDS011;12088;53.078;8.720;2022-08-19T03:38:28;3.77;;;2.70;;
23814;SDS011;12088;53.078;8.720;2022-08-19T03:40:54;3.10;;;2.33;;
23814;SDS011;12088;53.078;8.720;2022-08-19T03:43:20;2.10;;;1.53;;
23814;SDS011;12088;53.078;8.720;2022-08-19T03:45:46;6.67;;;2.97;;
23814;SDS011;12088;53.078;8.720;2022-08-19T03:48:12;2.13;;;1.47;;
23814;SDS011;12088;53.078;8.720;2022-08-19T03:50:40;3.17;;;2.40;;
23814;SDS011;12088;53.078;8.720;2022-08-19T03:53:06;2.63;;;1.97;;
23814;SDS011;12088;53.078;8.720;2022-08-19T03:55:33;4.00;;;2.73;;
23814;SDS011;12088;53.078;8.720;2022-08-19T03:58:03;1.93;;;1.73;;
23814;SDS011;12088;53.078;8.720;2022-08-19T04:00:28;2.87;;;2.03;;
23814;SDS011;12088;53.078;8.720;2022-08-19T04:02:54;4.30;;;2.27;;
23814;SDS011;12088;53.078;8.720;2022-08-19T04:05:19;1.63;;;1.53;;
23814;SDS011;12088;53.078;8.720;2022-08-19T04:07:45;3.43;;;2.57;;
23814;SDS011;12088;53.078;8.720;2022-08-19T04:10:10;2.37;;;2.17;;
23814;SDS011;12088;53.078;8.720;2022-08-19T04:12:36;4.60;;;2.80;;
23814;SDS011;12088;53.078;8.720;2022-08-19T04:15:02;3.27;;;2.40;;
23814;SDS011;12088;53.078;8.720;2022-08-19T04:17:29;2.43;;;1.77;;
23814;SDS011;12088;53.078;8.720;2022-08-19T04:19:55;1.50;;;1.40;;
23814;SDS011;12088;53.078;8.720;2022-08-19T04:22:20;3.23;;;2.17;;
23814;SDS011;12088;53.078;8.720;2022-08-19T04:24:46;2.17;;;1.53;;
23814;SDS011;12088;53.078;8.720;2022-08-19T04:27:11;7.93;;;2.93;;
23814;SDS011;12088;53.078;8.720;2022-08-19T04:29:37;2.40;;;1.70;;
23814;SDS011;12088;53.078;8.720;2022-08-19T04:32:04;1.90;;;1.70;;
23814;SDS011;12088;53.078;8.720;2022-08-19T04:34:30;2.03;;;1.83;;
23814;SDS011;12088;53.078;8.720;2022-08-19T04:36:57;2.57;;;1.53;;
23814;SDS011;12088;53.078;8.720;2022-08-19T04:39:24;2.30;;;2.10;;
23814;SDS011;12088;53.078;8.720;2022-08-19T04:42:14;2.43;;;2.13;;
23814;SDS011;12088;53.078;8.720;2022-08-19T04:45:00;3.30;;;2.73;;
23814;SDS011;12088;53.078;8.720;2022-08-19T04:47:27;2.43;;;2.23;;
23814;SDS011;12088;53.078;8.720;2022-08-19T04:49:52;2.63;;;2.00;;
23814;SDS011;12088;53.078;8.720;2022-08-19T04:52:18;3.37;;;2.07;;
23814;SDS011;12088;53.078;8.720;2022-08-19T04:54:43;4.77;;;3.10;;
23814;SDS011;12088;53.078;8.720;2022-08-19T04:57:09;3.07;;;2.87;;
23814;SDS011;12088;53.078;8.720;2022-08-19T04:59:38;3.07;;;2.63;;
23814;SDS011;12088;53.078;8.720;2022-08-19T05:02:04;3.33;;;2.50;;
23814;SDS011;12088;53.078;8.720;2022-08-19T05:04:31;4.43;;;2.83;;
23814;SDS011;12088;53.078;8.720;2022-08-19T05:06:57;5.90;;;2.27;;
23814;SDS011;12088;53.078;8.720;2022-08-19T05:09:23;3.20;;;2.90;;
23814;SDS011;12088;53.078;8.720;2022-08-19T05:11:48;2.50;;;2.30;;
23814;SDS011;12088;53.078;8.720;2022-08-19T05:14:14;2.40;;;2.17;;
23814;SDS011;12088;53.078;8.720;2022-08-19T05:16:40;2.83;;;2.53;;
23814;SDS011;12088;53.078;8.720;2022-08-19T05:19:05;3.60;;;1.80;;
23814;SDS011;12088;53.078;8.720;2022-08-19T05:21:50;6.30;;;2.57;;
23814;SDS011;12088;53.078;8.720;2022-08-19T05:24:34;3.70;;;2.40;;
23814;SDS011;12088;53.078;8.720;2022-08-19T05:26:59;7.07;;;2.87;;
23814;SDS011;12088;53.078;8.720;2022-08-19T05:29:27;3.13;;;2.40;;
23814;SDS011;12088;53.078;8.720;2022-08-19T05:31:54;3.63;;;2.20;;
23814;SDS011;12088;53.078;8.720;2022-08-19T05:34:21;4.33;;;2.53;;
23814;SDS011;12088;53.078;8.720;2022-08-19T05:36:51;7.43;;;3.53;;
23814;SDS011;12088;53.078;8.720;2022-08-19T05:39:21;3.20;;;2.10;;
23814;SDS011;12088;53.078;8.720;2022-08-19T05:41:47;4.97;;;2.80;;
23814;SDS011;12088;53.078;8.720;2022-08-19T05:44:16;3.47;;;2.17;;
23814;SDS011;12088;53.078;8.720;2022-08-19T05:46:45;4.47;;;2.70;;
23814;SDS011;12088;53.078;8.720;2022-08-19T05:49:17;6.00;;;3.57;;
23814;SDS011;12088;53.078;8.720;2022-08-19T05:51:43;6.20;;;3.30;;
23814;SDS011;12088;53.078;8.720;2022-08-19T05:54:09;4.30;;;2.87;;
23814;SDS011;12088;53.078;8.720;2022-08-19T05:56:36;5.13;;;3.27;;
23814;SDS011;12088;53.078;8.720;2022-08-19T05:59:03;6.13;;;2.83;;
23814;SDS011;12088;53.078;8.720;2022-08-19T06:01:34;5.23;;;3.77;;
23814;SDS011;12088;53.078;8.720;2022-08-19T06:04:01;5.10;;;3.23;;
23814;SDS011;12088;53.078;8.720;2022-08-19T06:06:27;5.93;;;2.27;;
23814;SDS011;12088;53.078;8.720;2022-08-19T06:08:52;8.23;;;4.10;;
23814;SDS011;12088;53.078;8.720;2022-08-19T06:11:22;5.70;;;4.37;;
23814;SDS011;12088;53.078;8.720;2022-08-19T06:13:50;5.43;;;3.40;;
23814;SDS011;12088;53.078;8.720;2022-08-19T06:16:20;3.93;;;3.13;;
23814;SDS011;12088;53.078;8.720;2022-08-19T06:18:50;4.67;;;2.90;;
23814;SDS011;12088;53.078;8.720;2022-08-19T06:21:21;7.03;;;3.33;;
23814;SDS011;12088;53.078;8.720;2022-08-19T06:23:48;4.40;;;2.73;;
23814;SDS011;12088;53.078;8.720;2022-08-19T06:26:15;2.77;;;2.57;;
23814;SDS011;12088;53.078;8.720;2022-08-19T06:28:42;4.37;;;3.00;;
23814;SDS011;12088;53.078;8.720;2022-08-19T06:31:11;3.27;;;2.17;;
23814;SDS011;12088;53.078;8.720;2022-08-19T06:33:39;4.93;;;2.93;;
23814;SDS011;12088;53.078;8.720;2022-08-19T06:36:05;4.80;;;2.70;;
23814;SDS011;12088;53.078;8.720;2022-08-19T06:38:32;5.43;;;4.10;;
23814;SDS011;12088;53.078;8.720;2022-08-19T06:41:03;5.67;;;2.83;;
23814;SDS011;12088;53.078;8.720;2022-08-19T06:43:29;9.03;;;3.63;;
23814;SDS011;12088;53.078;8.720;2022-08-19T06:45:55;4.60;;;2.50;;
23814;SDS011;12088;53.078;8.720;2022-08-19T06:48:21;6.00;;;3.97;;
23814;SDS011;12088;53.078;8.720;2022-08-19T06:50:46;7.00;;;3.97;;
23814;SDS011;12088;53.078;8.720;2022-08-19T06:53:14;5.37;;;3.43;;
23814;SDS011;12088;53.078;8.720;2022-08-19T06:55:40;5.87;;;3.33;;
23814;SDS011;12088;53.078;8.720;2022-08-19T06:58:05;3.50;;;3.13;;
23814;SDS011;12088;53.078;8.720;2022-08-19T07:00:31;4.77;;;3.20;;
23814;SDS011;12088;53.078;8.720;2022-08-19T07:02:57;7.00;;;2.95;;
23814;SDS011;12088;53.078;8.720;2022-08-19T07:05:23;7.60;;;3.13;;
23814;SDS011;12088;53.078;8.720;2022-08-19T07:07:49;10.95;;;3.20;;
23814;SDS011;12088;53.078;8.720;2022-08-19T07:10:15;12.70;;;4.07;;
23814;SDS011;12088;53.078;8.720;2022-08-19T07:12:40;6.45;;;3.60;;
23814;SDS011;12088;53.078;8.720;2022-08-19T07:15:06;4.55;;;3.03;;
23814;SDS011;12088;53.078;8.720;2022-08-19T07:17:33;3.42;;;2.05;;
23814;SDS011;12088;53.078;8.720;2022-08-19T07:20:02;6.50;;;3.42;;
23814;SDS011;12088;53.078;8.720;2022-08-19T07:22:28;4.97;;;3.40;;
23814;SDS011;12088;53.078;8.720;2022-08-19T07:24:53;5.88;;;3.20;;
23814;SDS011;12088;53.078;8.720;2022-08-19T07:27:19;8.35;;;3.80;;
23814;SDS011;12088;53.078;8.720;2022-08-19T07:29:45;6.60;;;3.65;;
23814;SDS011;12088;53.078;8.720;2022-08-19T07:32:10;3.72;;;2.63;;
23814;SDS011;12088;53.078;8.720;2022-08-19T07:34:36;6.38;;;2.63;;
23814;SDS011;12088;53.078;8.720;2022-08-19T07:37:03;4.15;;;3.15;;
23814;SDS011;12088;53.078;8.720;2022-08-19T07:39:30;3.85;;;2.13;;
23814;SDS011;12088;53.078;8.720;2022-08-19T07:41:59;3.97;;;2.58;;
23814;SDS011;12088;53.078;8.720;2022-08-19T07:44:25;2.72;;;1.83;;
23814;SDS011;12088;53.078;8.720;2022-08-19T07:46:53;3.45;;;2.80;;
23814;SDS011;12088;53.078;8.720;2022-08-19T07:49:20;3.22;;;2.45;;
23814;SDS011;12088;53.078;8.720;2022-08-19T07:51:49;4.30;;;2.38;;
23814;SDS011;12088;53.078;8.720;2022-08-19T07:54:17;2.35;;;1.83;;
23814;SDS011;12088;53.078;8.720;2022-08-19T07:56:43;5.32;;;2.40;;
23814;SDS011;12088;53.078;8.720;2022-08-19T07:59:08;2.55;;;2.25;;
23814;SDS011;12088;53.078;8.720;2022-08-19T08:01:34;2.60;;;2.30;;
23814;SDS011;12088;53.078;8.720;2022-08-19T08:04:00;6.47;;;1.83;;
23814;SDS011;12088;53.078;8.720;2022-08-19T08:06:45;6.93;;;3.17;;
23814;SDS011;12088;53.078;8.720;2022-08-19T08:09:30;3.08;;;1.95;;
23814;SDS011;12088;53.078;8.720;2022-08-19T08:12:00;5.22;;;2.35;;
23814;SDS011;12088;53.078;8.720;2022-08-19T08:14:41;1.88;;;1.63;;
23814;SDS011;12088;53.078;8.720;2022-08-19T08:17:12;3.38;;;2.30;;
23814;SDS011;12088;53.078;8.720;2022-08-19T08:19:39;5.38;;;1.70;;
23814;SDS011;12088;53.078;8.720;2022-08-19T08:22:08;3.75;;;2.03;;
23814;SDS011;12088;53.078;8.720;2022-08-19T08:24:55;1.88;;;1.13;;
23814;SDS011;12088;53.078;8.720;2022-08-19T08:27:23;1.35;;;1.25;;
23814;SDS011;12088;53.078;8.720;2022-08-19T08:29:49;1.40;;;1.30;;
23814;SDS011;12088;53.078;8.720;2022-08-19T08:32:14;1.13;;;1.02;;
23814;SDS011;12088;53.078;8.720;2022-08-19T08:34:40;19.23;;;2.13;;
23814;SDS011;12088;53.078;8.720;2022-08-19T08:37:06;2.58;;;1.70;;
23814;SDS011;12088;53.078;8.720;2022-08-19T08:39:31;0.85;;;0.85;;
23814;SDS011;12088;53.078;8.720;2022-08-19T08:42:12;4.38;;;1.15;;
23814;SDS011;12088;53.078;8.720;2022-08-19T08:44:53;2.80;;;1.40;;
23814;SDS011;12088;53.078;8.720;2022-08-19T08:47:32;1.25;;;1.15;;
23814;SDS011;12088;53.078;8.720;2022-08-19T08:50:04;1.08;;;1.00;;
23814;SDS011;12088;53.078;8.720;2022-08-19T08:52:35;1.08;;;0.98;;
23814;SDS011;12088;53.078;8.720;2022-08-19T08:55:09;2.72;;;1.27;;
23814;SDS011;12088;53.078;8.720;2022-08-19T08:57:39;1.00;;;1.00;;
23814;SDS011;12088;53.078;8.720;2022-08-19T09:00:06;0.70;;;0.70;;
23814;SDS011;12088;53.078;8.720;2022-08-19T09:02:35;0.73;;;0.73;;
23814;SDS011;12088;53.078;8.720;2022-08-19T09:05:00;1.27;;;1.15;;
23814;SDS011;12088;53.078;8.720;2022-08-19T09:13:03;0.70;;;0.70;;
23814;SDS011;12088;53.078;8.720;2022-08-19T09:15:57;1.08;;;1.00;;
23814;SDS011;12088;53.078;8.720;2022-08-19T09:18:43;0.60;;;0.60;;
23814;SDS011;12088;53.078;8.720;2022-08-19T09:21:12;0.63;;;0.63;;
23814;SDS011;12088;53.078;8.720;2022-08-19T09:23:39;0.60;;;0.60;;
23814;SDS011;12088;53.078;8.720;2022-08-19T09:26:12;0.73;;;0.73;;
23814;SDS011;12088;53.078;8.720;2022-08-19T09:28:40;1.67;;;1.02;;
23814;SDS011;12088;53.078;8.720;2022-08-19T09:31:10;0.98;;;0.98;;
23814;SDS011;12088;53.078;8.720;2022-08-19T09:33:37;4.68;;;1.27;;
23814;SDS011;12088;53.078;8.720;2022-08-19T09:36:06;2.03;;;0.70;;
23814;SDS011;12088;53.078;8.720;2022-08-19T09:38:33;0.75;;;0.73;;
23814;SDS011;12088;53.078;8.720;2022-08-19T09:41:04;0.50;;;0.50;;
23814;SDS011;12088;53.078;8.720;2022-08-19T09:43:31;0.50;;;0.50;;
23814;SDS011;12088;53.078;8.720;2022-08-19T09:45:59;0.70;;;0.70;;
23814;SDS011;12088;53.078;8.720;2022-08-19T09:48:26;0.60;;;0.60;;
23814;SDS011;12088;53.078;8.720;2022-08-19T09:50:51;0.95;;;0.70;;
23814;SDS011;12088;53.078;8.720;2022-08-19T09:53:17;1.00;;;1.00;;
23814;SDS011;12088;53.078;8.720;2022-08-19T09:55:43;0.95;;;0.80;;
23814;SDS011;12088;53.078;8.720;2022-08-19T09:58:08;1.88;;;0.90;;
23814;SDS011;12088;53.078;8.720;2022-08-19T10:00:36;0.70;;;0.70;;
23814;SDS011;12088;53.078;8.720;2022-08-19T10:03:03;0.70;;;0.70;;
23814;SDS011;12088;53.078;8.720;2022-08-19T10:05:28;0.55;;;0.55;;
23814;SDS011;12088;53.078;8.720;2022-08-19T10:08:12;0.60;;;0.60;;
23814;SDS011;12088;53.078;8.720;2022-08-19T10:10:39;0.77;;;0.77;;
23814;SDS011;12088;53.078;8.720;2022-08-19T10:13:08;0.60;;;0.60;;
23814;SDS011;12088;53.078;8.720;2022-08-19T10:15:34;0.77;;;0.77;;
23814;SDS011;12088;53.078;8.720;2022-08-19T10:18:00;0.70;;;0.70;;
23814;SDS011;12088;53.078;8.720;2022-08-19T10:20:26;0.65;;;0.65;;
23814;SDS011;12088;53.078;8.720;2022-08-19T10:22:51;0.80;;;0.80;;
23814;SDS011;12088;53.078;8.720;2022-08-19T10:25:17;1.30;;;0.90;;
23814;SDS011;12088;53.078;8.720;2022-08-19T10:27:43;0.88;;;0.88;;
23814;SDS011;12088;53.078;8.720;2022-08-19T10:30:08;1.10;;;0.80;;
23814;SDS011;12088;53.078;8.720;2022-08-19T10:32:34;0.80;;;0.80;;
23814;SDS011;12088;53.078;8.720;2022-08-19T10:35:00;0.63;;;0.63;;
23814;SDS011;12088;53.078;8.720;2022-08-19T10:37:26;1.50;;;1.10;;
23814;SDS011;12088;53.078;8.720;2022-08-19T10:39:52;0.60;;;0.60;;
23814;SDS011;12088;53.078;8.720;2022-08-19T10:42:17;0.70;;;0.70;;
23814;SDS011;12088;53.078;8.720;2022-08-19T10:44:43;0.90;;;0.77;;
23814;SDS011;12088;53.078;8.720;2022-08-19T10:47:09;0.90;;;0.57;;
23814;SDS011;12088;53.078;8.720;2022-08-19T10:49:35;0.60;;;0.60;;
23814;SDS011;12088;53.078;8.720;2022-08-19T10:52:21;0.60;;;0.60;;
23814;SDS011;12088;53.078;8.720;2022-08-19T10:54:58;0.60;;;0.60;;
23814;SDS011;12088;53.078;8.720;2022-08-19T10:57:43;0.68;;;0.68;;
23814;SDS011;12088;53.078;8.720;2022-08-19T11:00:09;0.52;;;0.52;;
23814;SDS011;12088;53.078;8.720;2022-08-19T11:02:37;0.70;;;0.70;;
23814;SDS011;12088;53.078;8.720;2022-08-19T11:05:03;0.70;;;0.70;;
23814;SDS011;12088;53.078;8.720;2022-08-19T11:07:29;0.60;;;0.60;;
23814;SDS011;12088;53.078;8.720;2022-08-19T11:09:54;0.80;;;0.80;;
23814;SDS011;12088;53.078;8.720;2022-08-19T11:12:19;0.70;;;0.70;;
23814;SDS011;12088;53.078;8.720;2022-08-19T11:14:45;0.60;;;0.60;;
23814;SDS011;12088;53.078;8.720;2022-08-19T11:17:10;1.08;;;1.08;;
23814;SDS011;12088;53.078;8.720;2022-08-19T11:19:38;0.80;;;0.80;;
23814;SDS011;12088;53.078;8.720;2022-08-19T11:22:06;0.80;;;0.80;;
23814;SDS011;12088;53.078;8.720;2022-08-19T11:24:35;0.70;;;0.68;;
23814;SDS011;12088;53.078;8.720;2022-08-19T11:27:03;0.60;;;0.60;;
23814;SDS011;12088;53.078;8.720;2022-08-19T11:29:32;0.85;;;0.85;;
23814;SDS011;12088;53.078;8.720;2022-08-19T11:31:59;0.60;;;0.60;;
23814;SDS011;12088;53.078;8.720;2022-08-19T11:34:26;0.77;;;0.60;;
23814;SDS011;12088;53.078;8.720;2022-08-19T11:36:53;0.60;;;0.60;;
23814;SDS011;12088;53.078;8.720;2022-08-19T11:39:23;0.50;;;0.50;;
23814;SDS011;12088;53.078;8.720;2022-08-19T11:41:50;0.52;;;0.52;;
23814;SDS011;12088;53.078;8.720;2022-08-19T11:44:15;0.55;;;0.55;;
23814;SDS011;12088;53.078;8.720;2022-08-19T11:46:42;0.82;;;0.68;;
23814;SDS011;12088;53.078;8.720;2022-08-19T11:49:11;0.65;;;0.65;;
23814;SDS011;12088;53.078;8.720;2022-08-19T11:51:38;0.63;;;0.63;;
23814;SDS011;12088;53.078;8.720;2022-08-19T11:54:04;1.60;;;0.70;;
23814;SDS011;12088;53.078;8.720;2022-08-19T11:56:30;0.50;;;0.50;;
23814;SDS011;12088;53.078;8.720;2022-08-19T11:58:56;0.57;;;0.57;;
23814;SDS011;12088;53.078;8.720;2022-08-19T12:01:22;0.50;;;0.50;;
23814;SDS011;12088;53.078;8.720;2022-08-19T12:03:50;0.55;;;0.55;;
23814;SDS011;12088;53.078;8.720;2022-08-19T12:06:18;0.82;;;0.82;;
23814;SDS011;12088;53.078;8.720;2022-08-19T12:08:53;1.02;;;0.60;;
23814;SDS011;12088;53.078;8.720;2022-08-19T12:11:20;0.93;;;0.60;;
23814;SDS011;12088;53.078;8.720;2022-08-19T12:13:46;0.50;;;0.50;;
23814;SDS011;12088;53.078;8.720;2022-08-19T12:16:14;0.82;;;0.73;;
23814;SDS011;12088;53.078;8.720;2022-08-19T12:18:41;1.13;;;0.80;;
23814;SDS011;12088;53.078;8.720;2022-08-19T12:21:16;0.60;;;0.60;;
23814;SDS011;12088;53.078;8.720;2022-08-19T12:23:46;0.90;;;0.90;;
23814;SDS011;12088;53.078;8.720;2022-08-19T12:26:11;0.60;;;0.60;;
23814;SDS011;12088;53.078;8.720;2022-08-19T12:28:37;0.50;;;0.50;;
23814;SDS011;12088;53.078;8.720;2022-08-19T12:31:03;0.73;;;0.73;;
23814;SDS011;12088;53.078;8.720;2022-08-19T12:33:29;0.70;;;0.70;;
23814;SDS011;12088;53.078;8.720;2022-08-19T12:35:59;1.20;;;0.65;;
23814;SDS011;12088;53.078;8.720;2022-08-19T12:38:30;0.68;;;0.68;;
23814;SDS011;12088;53.078;8.720;2022-08-19T12:40:57;0.60;;;0.60;;
23814;SDS011;12088;53.078;8.720;2022-08-19T12:43:22;0.70;;;0.70;;
23814;SDS011;12088;53.078;8.720;2022-08-19T12:45:49;0.57;;;0.57;;
23814;SDS011;12088;53.078;8.720;2022-08-19T12:48:14;0.60;;;0.60;;
23814;SDS011;12088;53.078;8.720;2022-08-19T12:50:41;0.50;;;0.50;;
23814;SDS011;12088;53.078;8.720;2022-08-19T12:53:10;0.50;;;0.50;;
23814;SDS011;12088;53.078;8.720;2022-08-19T12:55:35;0.60;;;0.60;;
23814;SDS011;12088;53.078;8.720;2022-08-19T12:58:01;0.60;;;0.60;;
23814;SDS011;12088;53.078;8.720;2022-08-19T13:00:27;0.60;;;0.60;;
23814;SDS011;12088;53.078;8.720;2022-08-19T13:02:53;0.40;;;0.40;;
23814;SDS011;12088;53.078;8.720;2022-08-19T13:05:20;0.60;;;0.60;;
23814;SDS011;12088;53.078;8.720;2022-08-19T13:07:47;0.70;;;0.70;;
23814;SDS011;12088;53.078;8.720;2022-08-19T13:10:16;0.50;;;0.50;;
23814;SDS011;12088;53.078;8.720;2022-08-19T13:12:44;0.75;;;0.75;;
23814;SDS011;12088;53.078;8.720;2022-08-19T13:15:12;0.60;;;0.60;;
23814;SDS011;12088;53.078;8.720;2022-08-19T13:17:38;0.60;;;0.60;;
23814;SDS011;12088;53.078;8.720;2022-08-19T13:20:05;0.95;;;0.95;;
23814;SDS011;12088;53.078;8.720;2022-08-19T13:22:34;0.60;;;0.60;;
23814;SDS011;12088;53.078;8.720;2022-08-19T13:25:00;1.10;;;1.10;;
23814;SDS011;12088;53.078;8.720;2022-08-19T13:27:27;1.38;;;0.80;;
23814;SDS011;12088;53.078;8.720;2022-08-19T13:29:54;0.80;;;0.80;;
23814;SDS011;12088;53.078;8.720;2022-08-19T13:32:38;0.60;;;0.60;;
23814;SDS011;12088;53.078;8.720;2022-08-19T13:35:22;0.77;;;0.77;;
23814;SDS011;12088;53.078;8.720;2022-08-19T13:37:48;0.60;;;0.60;;
23814;SDS011;12088;53.078;8.720;2022-08-19T13:40:17;0.50;;;0.50;;
23814;SDS011;12088;53.078;8.720;2022-08-19T13:42:50;0.60;;;0.60;;
23814;SDS011;12088;53.078;8.720;2022-08-19T13:45:18;0.50;;;0.50;;
23814;SDS011;12088;53.078;8.720;2022-08-19T13:47:46;0.60;;;0.60;;
23814;SDS011;12088;53.078;8.720;2022-08-19T13:50:14;0.57;;;0.57;;
23814;SDS011;12088;53.078;8.720;2022-08-19T13:52:44;0.50;;;0.50;;
23814;SDS011;12088;53.078;8.720;2022-08-19T13:55:10;0.50;;;0.50;;
23814;SDS011;12088;53.078;8.720;2022-08-19T13:57:37;2.35;;;0.65;;
23814;SDS011;12088;53.078;8.720;2022-08-19T14:00:07;0.60;;;0.60;;
23814;SDS011;12088;53.078;8.720;2022-08-19T14:02:36;0.95;;;0.70;;
23814;SDS011;12088;53.078;8.720;2022-08-19T14:05:05;0.50;;;0.50;;
23814;SDS011;12088;53.078;8.720;2022-08-19T14:07:33;1.02;;;0.60;;
23814;SDS011;12088;53.078;8.720;2022-08-19T14:09:59;0.70;;;0.70;;
23814;SDS011;12088;53.078;8.720;2022-08-19T14:12:24;0.50;;;0.50;;
23814;SDS011;12088;53.078;8.720;2022-08-19T14:14:50;0.63;;;0.63;;
23814;SDS011;12088;53.078;8.720;2022-08-19T14:17:15;0.60;;;0.60;;
23814;SDS011;12088;53.078;8.720;2022-08-19T14:19:41;0.50;;;0.50;;
23814;SDS011;12088;53.078;8.720;2022-08-19T14:22:07;0.60;;;0.60;;
23814;SDS011;12088;53.078;8.720;2022-08-19T14:24:33;0.50;;;0.50;;
23814;SDS011;12088;53.078;8.720;2022-08-19T14:26:59;0.70;;;0.70;;
23814;SDS011;12088;53.078;8.720;2022-08-19T14:29:25;0.60;;;0.60;;
23814;SDS011;12088;53.078;8.720;2022-08-19T14:31:52;0.52;;;0.52;;
23814;SDS011;12088;53.078;8.720;2022-08-19T14:34:18;0.60;;;0.60;;
23814;SDS011;12088;53.078;8.720;2022-08-19T14:36:43;0.70;;;0.60;;
23814;SDS011;12088;53.078;8.720;2022-08-19T14:39:09;0.82;;;0.82;;
23814;SDS011;12088;53.078;8.720;2022-08-19T14:41:35;1.55;;;1.55;;
23814;SDS011;12088;53.078;8.720;2022-08-19T14:44:01;0.95;;;0.95;;
23814;SDS011;12088;53.078;8.720;2022-08-19T14:46:27;1.05;;;1.05;;
23814;SDS011;12088;53.078;8.720;2022-08-19T14:48:53;0.80;;;0.80;;
23814;SDS011;12088;53.078;8.720;2022-08-19T14:51:21;0.80;;;0.80;;
23814;SDS011;12088;53.078;8.720;2022-08-19T14:53:47;0.98;;;0.98;;
23814;SDS011;12088;53.078;8.720;2022-08-19T14:56:14;0.80;;;0.80;;
23814;SDS011;12088;53.078;8.720;2022-08-19T14:58:42;0.50;;;0.50;;
23814;SDS011;12088;53.078;8.720;2022-08-19T15:01:08;0.70;;;0.70;;